createdAt,value
2022-10-01T00:02:09.549Z,89.59
2022-10-01T00:04:39.917Z,89.84
2022-10-01T00:07:11.184Z,90.15
2022-10-01T00:09:39.858Z,88.90
2022-10-01T00:12:08.653Z,90.61
2022-10-01T00:14:39.662Z,90.35
2022-10-01T00:17:08.433Z,89.17
2022-10-01T00:19:37.129Z,88.05
2022-10-01T00:22:05.740Z,90.19
2022-10-01T00:24:34.364Z,91.09
2022-10-01T00:27:02.972Z,90.81
2022-10-01T00:29:32.113Z,89.28
2022-10-01T00:32:01.781Z,88.72
2022-10-01T00:34:30.438Z,87.99
2022-10-01T00:36:58.991Z,90.30
2022-10-01T00:39:27.709Z,92.53
2022-10-01T00:41:56.262Z,92.02
2022-10-01T00:44:37.921Z,92.15
2022-10-01T00:47:41.248Z,92.97
2022-10-01T00:50:28.439Z,92.51
2022-10-01T00:53:03.848Z,91.90
2022-10-01T00:55:55.418Z,90.13
2022-10-01T00:58:26.075Z,91.38
2022-10-01T01:00:57.120Z,90.10
2022-10-01T01:03:26.906Z,89.49
2022-10-01T01:05:55.495Z,89.35
2022-10-01T01:08:24.184Z,89.48
2022-10-01T01:11:17.379Z,91.58
2022-10-01T01:14:29.709Z,91.94
2022-10-01T01:17:08.881Z,92.37
2022-10-01T01:20:38.035Z,92.50
2022-10-01T01:23:16.373Z,91.21
2022-10-01T01:26:32.109Z,90.55
2022-10-01T01:29:40.050Z,89.99
2022-10-01T01:32:18.452Z,89.64
2022-10-01T01:34:50.629Z,91.39
2022-10-01T01:37:26.979Z,91.43
2022-10-01T01:39:57.425Z,92.09
2022-10-01T01:42:38.128Z,92.32
2022-10-01T01:45:12.601Z,92.27
2022-10-01T01:47:42.351Z,92.03
2022-10-01T01:50:14.797Z,92.00
2022-10-01T01:52:43.732Z,92.25
2022-10-01T01:55:12.351Z,92.16
2022-10-01T01:57:43.857Z,92.57
2022-10-01T02:00:14.504Z,92.96
2022-10-01T02:02:54.053Z,93.55
2022-10-01T02:05:29.334Z,94.02
2022-10-01T02:08:31.918Z,94.26
2022-10-01T02:11:33.005Z,93.81
2022-10-01T02:14:09.865Z,92.10
2022-10-01T02:16:58.128Z,91.44
2022-10-01T02:19:33.922Z,92.34
2022-10-01T02:22:37.101Z,93.07
2022-10-01T02:25:08.029Z,93.03
2022-10-01T02:27:56.363Z,91.90
2022-10-01T02:30:25.402Z,90.53
2022-10-01T02:32:59.511Z,90.37
2022-10-01T02:35:31.835Z,90.42
2022-10-01T02:38:04.473Z,92.00
2022-10-01T02:40:38.194Z,92.40
2022-10-01T02:43:21.371Z,92.26
2022-10-01T02:45:58.414Z,94.54
2022-10-01T02:48:28.110Z,94.93
2022-10-01T02:51:17.417Z,94.49
2022-10-01T02:53:53.121Z,94.91
2022-10-01T02:56:48.604Z,94.64
2022-10-01T02:59:17.592Z,94.56
2022-10-01T03:01:46.281Z,94.76
2022-10-01T03:04:14.981Z,95.40
2022-10-01T03:06:43.576Z,95.07
2022-10-01T03:09:13.337Z,94.80
2022-10-01T03:11:42.759Z,94.82
2022-10-01T03:14:11.507Z,95.07
2022-10-01T03:16:40.118Z,93.83
2022-10-01T03:19:08.777Z,93.43
2022-10-01T03:21:37.415Z,93.03
2022-10-01T03:24:06.310Z,92.92
2022-10-01T03:26:34.918Z,94.22
2022-10-01T03:29:04.853Z,93.61
2022-10-01T03:31:33.902Z,92.70
2022-10-01T03:34:02.785Z,93.45
2022-10-01T03:36:31.442Z,92.14
2022-10-01T03:39:00.132Z,92.85
2022-10-01T03:41:28.771Z,93.95
2022-10-01T03:44:00.542Z,94.99
2022-10-01T03:46:30.765Z,95.14
2022-10-01T03:49:01.129Z,95.09
2022-10-01T03:51:31.527Z,95.02
2022-10-01T03:54:00.353Z,94.11
2022-10-01T03:56:29.103Z,93.05
2022-10-01T03:58:57.785Z,92.98
2022-10-01T04:01:27.686Z,92.31
2022-10-01T04:03:56.515Z,93.18
2022-10-01T04:06:25.163Z,93.57
2022-10-01T04:08:53.798Z,93.40
2022-10-01T04:11:23.887Z,95.08
2022-10-01T04:13:54.435Z,95.69
2022-10-01T04:16:30.597Z,95.48
2022-10-01T04:18:59.199Z,95.16
2022-10-01T04:21:28.363Z,95.65
2022-10-01T04:23:57.344Z,96.10
2022-10-01T04:26:26.023Z,95.65
2022-10-01T04:28:56.907Z,95.78
2022-10-01T04:31:25.705Z,95.80
2022-10-01T04:33:57.434Z,94.52
2022-10-01T04:36:26.608Z,94.18
2022-10-01T04:39:01.723Z,94.60
2022-10-01T04:41:32.429Z,94.49
2022-10-01T04:44:01.340Z,94.05
2022-10-01T04:46:30.737Z,93.54
2022-10-01T04:48:59.482Z,93.00
2022-10-01T04:51:28.203Z,92.74
2022-10-01T04:53:56.814Z,92.25
2022-10-01T04:56:25.543Z,91.96
2022-10-01T04:58:54.163Z,91.21
2022-10-01T05:01:22.874Z,90.47
2022-10-01T05:03:51.496Z,89.92
2022-10-01T05:06:20.150Z,89.22
2022-10-01T05:08:49.893Z,88.65
2022-10-01T05:11:20.590Z,88.37
2022-10-01T05:13:49.253Z,88.21
2022-10-01T05:16:17.959Z,87.89
2022-10-01T05:18:46.687Z,86.69
2022-10-01T05:21:15.935Z,86.16
2022-10-01T05:23:44.702Z,86.32
2022-10-01T05:26:13.759Z,86.29
2022-10-01T05:28:44.882Z,84.21
2022-10-01T05:31:14.274Z,83.62
2022-10-01T05:33:42.960Z,82.68
2022-10-01T05:36:11.841Z,82.88
2022-10-01T05:38:40.419Z,82.96
2022-10-01T05:41:09.044Z,82.60
2022-10-01T05:43:37.733Z,78.88
2022-10-01T05:46:06.547Z,77.70
2022-10-01T05:48:37.233Z,77.26
2022-10-01T05:51:08.952Z,76.95
2022-10-01T05:53:38.415Z,78.12
2022-10-01T05:56:08.394Z,77.73
2022-10-01T05:58:37.066Z,76.96
2022-10-01T06:01:05.733Z,77.71
2022-10-01T06:03:34.409Z,75.79
2022-10-01T06:06:05.570Z,74.23
2022-10-01T06:08:37.332Z,73.79
2022-10-01T06:11:06.312Z,73.01
2022-10-01T06:13:44.023Z,72.83
2022-10-01T06:16:16.068Z,72.24
2022-10-01T06:18:44.884Z,69.82
2022-10-01T06:21:13.529Z,68.75
2022-10-01T06:23:44.662Z,68.83
2022-10-01T06:26:13.530Z,68.94
2022-10-01T06:28:42.412Z,69.20
2022-10-01T06:31:11.969Z,69.23
2022-10-01T06:33:40.977Z,68.58
2022-10-01T06:36:09.718Z,68.00
2022-10-01T06:38:43.690Z,67.19
2022-10-01T06:41:14.413Z,66.80
2022-10-01T06:43:46.104Z,66.47
2022-10-01T06:46:14.957Z,65.52
2022-10-01T06:48:43.672Z,65.17
2022-10-01T06:51:12.411Z,64.93
2022-10-01T06:53:43.289Z,64.36
2022-10-01T06:56:14.182Z,63.83
2022-10-01T06:58:43.588Z,63.95
2022-10-01T07:01:14.163Z,63.40
2022-10-01T07:03:42.850Z,63.73
2022-10-01T07:06:11.660Z,64.40
2022-10-01T07:08:42.893Z,64.16
2022-10-01T07:11:11.663Z,61.59
2022-10-01T07:13:40.351Z,61.06
2022-10-01T07:16:12.724Z,60.98
2022-10-01T07:18:46.450Z,61.07
2022-10-01T07:21:21.091Z,60.88
2022-10-01T07:23:49.903Z,60.81
2022-10-01T07:26:19.041Z,60.99
2022-10-01T07:28:47.724Z,61.47
2022-10-01T07:31:16.455Z,61.61
2022-10-01T07:33:45.134Z,61.32
2022-10-01T07:36:13.931Z,61.11
2022-10-01T07:38:51.480Z,59.08
2022-10-01T07:41:20.062Z,58.09
2022-10-01T07:43:51.335Z,56.76
2022-10-01T07:46:20.170Z,55.91
2022-10-01T07:48:50.113Z,56.25
2022-10-01T07:51:19.419Z,54.88
2022-10-01T07:53:48.159Z,55.70
2022-10-01T07:56:17.134Z,55.29
2022-10-01T07:58:45.781Z,54.25
2022-10-01T08:01:14.883Z,53.54
2022-10-01T08:03:43.668Z,53.64
2022-10-01T08:06:24.573Z,53.32
2022-10-01T08:08:54.640Z,53.93
2022-10-01T08:11:25.053Z,51.27
2022-10-01T08:13:59.446Z,50.92
2022-10-01T08:16:29.406Z,48.68
2022-10-01T08:19:01.230Z,47.49
2022-10-01T08:21:33.965Z,46.77
2022-10-01T08:24:04.769Z,46.62
2022-10-01T08:26:33.532Z,47.34
2022-10-01T08:29:07.566Z,46.29
2022-10-01T08:31:41.952Z,47.41
2022-10-01T08:34:21.275Z,46.06
2022-10-01T08:36:56.174Z,46.43
2022-10-01T08:39:24.970Z,46.81
2022-10-01T08:42:19.496Z,46.80
2022-10-01T08:44:51.305Z,46.82
2022-10-01T08:47:39.757Z,46.94
2022-10-01T08:50:34.296Z,46.49
2022-10-01T08:53:07.920Z,46.35
2022-10-01T08:55:46.822Z,46.29
2022-10-01T08:58:27.261Z,46.11
2022-10-01T09:00:56.010Z,45.92
2022-10-01T09:03:32.844Z,46.14
2022-10-01T09:06:38.862Z,45.73
2022-10-01T09:09:47.448Z,45.54
2022-10-01T09:13:00.525Z,45.34
2022-10-01T09:19:46.127Z,44.79
2022-10-01T09:22:47.765Z,44.16
2022-10-01T09:25:27.593Z,44.47
2022-10-01T09:28:33.859Z,44.74
2022-10-01T09:31:17.840Z,44.24
2022-10-01T09:34:15.128Z,43.72
2022-10-01T09:37:15.233Z,43.75
2022-10-01T09:40:19.509Z,43.38
2022-10-01T09:42:48.252Z,43.24
2022-10-01T09:45:21.459Z,42.74
2022-10-01T09:47:54.318Z,42.95
2022-10-01T09:50:35.366Z,42.92
2022-10-01T09:53:04.312Z,43.02
2022-10-01T09:55:43.277Z,43.09
2022-10-01T09:58:17.979Z,42.76
2022-10-01T10:00:48.559Z,42.32
2022-10-01T10:03:31.002Z,41.89
2022-10-01T10:06:02.122Z,41.75
2022-10-01T10:08:40.677Z,41.56
2022-10-01T10:11:12.143Z,41.44
2022-10-01T10:13:50.226Z,41.55
2022-10-01T10:16:26.734Z,41.17
2022-10-01T10:19:09.843Z,40.96
2022-10-01T10:21:38.466Z,41.02
2022-10-01T10:24:37.415Z,40.06
2022-10-01T10:27:27.752Z,39.96
2022-10-01T10:30:18.224Z,39.34
2022-10-01T10:32:50.107Z,38.85
2022-10-01T10:35:26.493Z,38.54
2022-10-01T10:37:57.558Z,37.43
2022-10-01T10:40:43.060Z,37.65
2022-10-01T10:43:31.517Z,36.46
2022-10-01T10:46:01.160Z,37.04
2022-10-01T10:48:39.707Z,37.67
2022-10-01T10:51:08.409Z,37.87
2022-10-01T10:53:46.315Z,37.32
2022-10-01T10:56:24.976Z,37.11
2022-10-01T10:58:54.308Z,37.14
2022-10-01T11:01:41.977Z,37.47
2022-10-01T11:04:59.238Z,37.17
2022-10-01T11:07:28.514Z,37.59
2022-10-01T11:10:23.592Z,37.05
2022-10-01T11:13:09.230Z,36.78
2022-10-01T11:16:15.565Z,37.29
2022-10-01T11:19:03.770Z,36.40
2022-10-01T11:22:06.129Z,36.34
2022-10-01T11:25:44.115Z,34.39
2022-10-01T11:29:16.291Z,34.59
2022-10-01T11:32:05.657Z,34.28
2022-10-01T11:35:05.386Z,34.81
2022-10-01T11:37:43.182Z,34.68
2022-10-01T11:40:30.590Z,34.36
2022-10-01T11:43:27.645Z,33.80
2022-10-01T11:46:04.376Z,33.79
2022-10-01T11:48:46.835Z,33.23
2022-10-01T11:51:27.578Z,33.32
2022-10-01T11:54:11.037Z,33.71
2022-10-01T11:57:04.863Z,33.30
2022-10-01T11:59:51.756Z,33.35
2022-10-01T12:02:38.626Z,32.77
2022-10-01T12:05:15.416Z,32.91
2022-10-01T12:08:07.354Z,33.04
2022-10-01T12:10:47.913Z,33.26
2022-10-01T12:13:16.529Z,33.37
2022-10-01T12:16:24.946Z,34.56
2022-10-01T12:18:56.617Z,35.08
2022-10-01T12:21:46.214Z,35.03
2022-10-01T12:24:32.666Z,35.13
2022-10-01T12:27:34.955Z,35.73
2022-10-01T12:30:22.501Z,35.44
2022-10-01T12:33:21.955Z,35.25
2022-10-01T12:36:19.317Z,35.17
2022-10-01T12:39:21.168Z,34.81
2022-10-01T12:42:31.583Z,34.62
2022-10-01T12:45:25.399Z,34.19
2022-10-01T12:48:32.476Z,34.43
2022-10-01T12:51:39.588Z,34.77
2022-10-01T12:54:31.249Z,34.97
2022-10-01T12:57:14.352Z,35.00
2022-10-01T13:00:08.555Z,35.22
2022-10-01T13:03:15.587Z,35.66
2022-10-01T13:06:01.097Z,36.08
2022-10-01T13:08:52.778Z,36.55
2022-10-01T13:11:40.177Z,36.55
2022-10-01T13:14:17.716Z,36.42
2022-10-01T13:17:17.512Z,36.63
2022-10-01T13:19:55.314Z,36.89
2022-10-01T13:22:43.796Z,37.19
2022-10-01T13:25:58.680Z,37.61
2022-10-01T13:28:55.152Z,37.86
2022-10-01T13:31:52.593Z,38.48
2022-10-01T13:34:32.357Z,38.39
2022-10-01T13:37:15.807Z,38.50
2022-10-01T13:39:48.334Z,39.12
2022-10-01T13:42:27.725Z,39.18
2022-10-01T13:45:21.047Z,39.41
2022-10-01T13:47:50.238Z,40.03
2022-10-01T13:50:25.575Z,40.01
2022-10-01T13:53:20.945Z,40.54
2022-10-01T13:55:50.924Z,40.65
2022-10-01T13:58:46.670Z,41.37
2022-10-01T14:01:24.081Z,42.11
2022-10-01T14:04:18.269Z,41.91
2022-10-01T14:07:23.028Z,41.99
2022-10-01T14:09:59.691Z,42.39
2022-10-01T14:12:53.256Z,43.08
2022-10-01T14:16:01.466Z,43.31
2022-10-01T14:18:44.616Z,43.59
2022-10-01T14:21:48.719Z,44.23
2022-10-01T14:24:38.116Z,44.46
2022-10-01T14:27:46.148Z,44.21
2022-10-01T14:30:23.876Z,44.89
2022-10-01T14:33:13.964Z,45.37
2022-10-01T14:36:18.250Z,45.30
2022-10-01T14:38:46.922Z,45.37
2022-10-01T14:41:23.636Z,45.63
2022-10-01T14:43:52.325Z,46.28
2022-10-01T14:46:21.039Z,46.52
2022-10-01T14:49:01.291Z,47.13
2022-10-01T14:51:31.464Z,47.77
2022-10-01T14:54:01.281Z,47.74
2022-10-01T14:56:30.209Z,47.41
2022-10-01T14:59:03.486Z,47.98
2022-10-01T15:01:32.214Z,48.37
2022-10-01T15:04:01.154Z,48.92
2022-10-01T15:06:30.446Z,49.48
2022-10-01T15:09:18.719Z,50.97
2022-10-01T15:11:50.937Z,53.40
2022-10-01T15:14:24.660Z,56.27
2022-10-01T15:16:53.986Z,58.68
2022-10-01T15:19:23.963Z,57.22
2022-10-01T15:22:03.241Z,55.94
2022-10-01T15:24:53.072Z,60.51
2022-10-01T15:27:22.126Z,61.24
2022-10-01T15:29:56.589Z,62.09
2022-10-01T15:32:28.329Z,64.76
2022-10-01T15:35:01.336Z,61.54
2022-10-01T15:37:38.369Z,64.79
2022-10-01T15:40:22.413Z,65.97
2022-10-01T15:43:30.817Z,65.01
2022-10-01T15:46:05.592Z,63.59
2022-10-01T15:48:34.442Z,67.48
2022-10-01T15:51:12.690Z,69.68
2022-10-01T15:53:41.649Z,68.25
2022-10-01T15:56:21.829Z,66.38
2022-10-01T15:58:56.819Z,66.75
2022-10-01T16:01:30.354Z,69.26
2022-10-01T16:04:14.800Z,68.88
2022-10-01T16:06:47.185Z,67.05
2022-10-01T16:09:18.901Z,70.37
2022-10-01T16:12:16.881Z,71.36
2022-10-01T16:15:23.339Z,70.10
2022-10-01T16:17:58.910Z,69.52
2022-10-01T16:20:44.758Z,67.55
2022-10-01T16:23:48.160Z,67.37
2022-10-01T16:26:45.437Z,68.16
2022-10-01T16:29:14.442Z,70.46
2022-10-01T16:31:45.722Z,71.45
2022-10-01T16:34:19.241Z,72.41
2022-10-01T16:36:48.193Z,71.70
2022-10-01T16:39:16.896Z,72.15
2022-10-01T16:42:06.366Z,72.40
2022-10-01T16:44:40.662Z,74.25
2022-10-01T16:47:12.431Z,75.17
2022-10-01T16:49:41.672Z,73.55
2022-10-01T16:52:14.232Z,74.08
2022-10-01T16:54:44.611Z,73.57
2022-10-01T16:57:15.570Z,72.47
2022-10-01T16:59:44.702Z,73.07
2022-10-01T17:02:14.977Z,73.53
2022-10-01T17:04:43.660Z,73.63
2022-10-01T17:07:12.262Z,72.98
2022-10-01T17:09:41.243Z,76.17
2022-10-01T17:12:12.799Z,76.53
2022-10-01T17:14:41.704Z,75.25
2022-10-01T17:17:10.300Z,75.07
2022-10-01T17:19:38.956Z,76.67
2022-10-01T17:22:08.746Z,77.18
2022-10-01T17:24:37.398Z,76.03
2022-10-01T17:27:06.074Z,75.85
2022-10-01T17:33:30.797Z,74.10
2022-10-01T17:35:59.750Z,74.70
2022-10-01T17:38:28.405Z,75.88
2022-10-01T17:40:59.841Z,76.76
2022-10-01T17:46:53.718Z,74.75
2022-10-01T17:49:22.336Z,74.16
2022-10-01T17:55:10.004Z,73.51
2022-10-01T17:57:38.656Z,74.02
2022-10-01T18:00:09.139Z,73.50
2022-10-01T18:02:42.929Z,74.07
2022-10-01T18:05:15.013Z,75.39
2022-10-01T18:07:43.838Z,75.42
2022-10-01T18:10:13.569Z,74.89
2022-10-01T18:12:42.703Z,74.65
2022-10-01T18:15:12.846Z,73.96
2022-10-01T18:17:43.764Z,72.49
2022-10-01T18:20:23.652Z,71.54
2022-10-01T18:22:52.285Z,70.62
2022-10-01T18:25:20.899Z,69.68
2022-10-01T18:27:50.399Z,69.23
2022-10-01T18:30:20.513Z,68.69
2022-10-01T18:32:57.237Z,68.13
2022-10-01T18:35:32.215Z,66.94
2022-10-01T18:38:20.810Z,66.64
2022-10-01T18:41:04.300Z,66.71
2022-10-01T18:43:37.322Z,65.59
2022-10-01T18:46:29.054Z,65.79
2022-10-01T18:49:53.235Z,65.15
2022-10-01T18:52:49.693Z,64.68
2022-10-01T18:56:12.154Z,64.95
2022-10-01T18:58:45.523Z,64.25
2022-10-01T19:01:41.159Z,63.72
2022-10-01T19:05:01.684Z,63.84
2022-10-01T19:08:02.931Z,63.45
2022-10-01T19:10:50.784Z,63.39
2022-10-01T19:13:46.850Z,63.21
2022-10-01T19:16:49.280Z,63.01
2022-10-01T19:19:41.573Z,62.87
2022-10-01T19:22:33.872Z,62.37
2022-10-01T19:25:33.146Z,62.18
2022-10-01T19:28:54.613Z,62.21
2022-10-01T19:32:15.925Z,61.76
2022-10-01T19:35:02.654Z,61.40
2022-10-01T19:37:34.260Z,61.33
2022-10-01T19:40:34.613Z,61.39
2022-10-01T19:43:36.854Z,61.41
2022-10-01T19:46:26.877Z,61.34
2022-10-01T19:49:13.706Z,61.04
2022-10-01T19:52:01.620Z,59.76
2022-10-01T19:54:34.797Z,60.12
2022-10-01T19:57:25.256Z,59.90
2022-10-01T19:59:58.845Z,59.59
2022-10-01T20:02:35.498Z,59.54
2022-10-01T20:05:16.429Z,59.44
2022-10-01T20:08:01.416Z,59.49
2022-10-01T20:10:30.067Z,59.75
2022-10-01T20:13:44.854Z,59.78
2022-10-01T20:16:41.033Z,59.85
2022-10-01T20:19:44.108Z,60.01
2022-10-01T20:22:44.415Z,60.10
2022-10-01T20:25:24.275Z,60.33
2022-10-01T20:28:25.586Z,60.29
2022-10-01T20:31:27.832Z,60.64
2022-10-01T20:34:02.871Z,58.84
2022-10-01T20:37:10.459Z,59.05
2022-10-01T20:39:48.651Z,59.34
2022-10-01T20:42:33.940Z,59.47
2022-10-01T20:45:04.807Z,59.43
2022-10-01T20:47:47.889Z,59.53
2022-10-01T20:50:32.568Z,59.65
2022-10-01T20:53:40.909Z,59.60
2022-10-01T20:56:19.787Z,59.41
2022-10-01T20:59:12.183Z,59.97
2022-10-01T21:02:19.310Z,60.90
2022-10-01T21:05:08.021Z,60.53
2022-10-01T21:07:53.102Z,61.40
2022-10-01T21:10:46.679Z,60.96
2022-10-01T21:13:39.545Z,61.91
2022-10-01T21:16:51.568Z,64.01
2022-10-01T21:19:47.727Z,66.61
2022-10-01T21:22:24.995Z,65.57
2022-10-01T21:25:20.099Z,64.97
2022-10-01T21:27:48.705Z,65.65
2022-10-01T21:30:20.880Z,66.50
2022-10-01T21:33:06.391Z,66.17
2022-10-01T21:36:19.918Z,65.48
2022-10-01T21:39:00.398Z,67.49
2022-10-01T21:41:43.863Z,67.36
2022-10-01T21:44:46.214Z,67.78
2022-10-01T21:48:06.993Z,67.66
2022-10-01T21:50:52.080Z,69.20
2022-10-01T21:53:28.997Z,68.17
2022-10-01T21:56:28.259Z,69.23
2022-10-01T21:59:21.528Z,68.52
2022-10-01T22:01:54.526Z,67.93
2022-10-01T22:04:48.593Z,70.40
2022-10-01T22:07:31.324Z,72.25
2022-10-01T22:10:02.554Z,71.51
2022-10-01T22:12:37.141Z,71.55
2022-10-01T22:15:17.882Z,72.75
2022-10-01T22:17:49.602Z,72.60
2022-10-01T22:20:20.833Z,73.04
2022-10-01T22:22:53.854Z,71.86
2022-10-01T22:25:22.704Z,71.41
2022-10-01T22:28:05.512Z,71.11
2022-10-01T22:30:37.336Z,71.50
2022-10-01T22:33:20.748Z,73.09
2022-10-01T22:36:05.658Z,76.78
2022-10-01T22:38:48.844Z,78.43
2022-10-01T22:41:36.781Z,80.53
2022-10-01T22:44:21.185Z,83.89
2022-10-01T22:47:39.597Z,83.94
2022-10-01T22:50:30.222Z,83.77
2022-10-01T22:53:03.790Z,83.90
2022-10-01T22:55:54.993Z,84.49
2022-10-01T22:58:59.432Z,89.30
2022-10-01T23:02:12.498Z,88.15
2022-10-01T23:04:58.269Z,88.14
2022-10-01T23:07:39.287Z,90.24
2022-10-01T23:10:21.992Z,89.62
2022-10-01T23:13:19.914Z,86.55
2022-10-01T23:16:10.715Z,86.69
2022-10-01T23:18:57.835Z,94.67
2022-10-01T23:22:18.324Z,95.41
2022-10-01T23:25:17.136Z,96.27
2022-10-01T23:27:54.413Z,94.37
2022-10-01T23:30:23.622Z,93.26
2022-10-01T23:33:30.596Z,93.82
2022-10-01T23:36:05.746Z,94.24
2022-10-01T23:39:06.481Z,94.56
2022-10-01T23:41:48.584Z,94.95
2022-10-01T23:44:50.254Z,95.05
2022-10-01T23:47:29.218Z,92.23
2022-10-01T23:50:01.125Z,93.11
2022-10-01T23:52:50.807Z,92.29
2022-10-01T23:55:54.211Z,91.79
2022-10-01T23:58:25.355Z,91.99
